createdAt,value
2023-05-21T00:00:30.437Z,21.80
2023-05-21T00:03:17.929Z,20.10
2023-05-21T00:05:47.153Z,16.20
2023-05-21T00:08:14.583Z,12.40
2023-05-21T00:10:41.740Z,11.70
2023-05-21T00:13:09.556Z,9.50
2023-05-21T00:15:37.192Z,11.60
2023-05-21T00:18:05.366Z,13.40
2023-05-21T00:20:32.971Z,17.20
2023-05-21T00:23:02.944Z,20.70
2023-05-21T00:25:30.115Z,14.70
2023-05-21T00:27:57.326Z,11.20
2023-05-21T00:30:24.831Z,7.70
2023-05-21T00:32:52.011Z,6.90
2023-05-21T00:35:19.722Z,14.50
2023-05-21T00:37:47.812Z,15.20
2023-05-21T00:40:15.740Z,11.40
2023-05-21T00:42:48.103Z,14.80
2023-05-21T00:45:15.289Z,8.10
2023-05-21T00:47:44.175Z,10.60
2023-05-21T00:50:12.247Z,13.30
2023-05-21T00:52:42.403Z,11.10
2023-05-21T00:55:11.163Z,10.80
2023-05-21T00:57:39.895Z,7.60
2023-05-21T01:00:09.068Z,8.20
2023-05-21T01:02:38.225Z,8.50
2023-05-21T01:05:06.874Z,10.20
2023-05-21T01:07:36.119Z,8.20
2023-05-21T01:10:06.298Z,11.10
2023-05-21T01:12:34.348Z,7.80
2023-05-21T01:15:04.227Z,10.10
2023-05-21T01:17:32.177Z,10.90
2023-05-21T01:20:00.311Z,10.00
2023-05-21T01:22:32.677Z,7.50
2023-05-21T01:25:02.958Z,12.70
2023-05-21T01:27:30.127Z,10.80
2023-05-21T01:29:57.593Z,9.50
2023-05-21T01:32:42.566Z,14.00
2023-05-21T01:35:30.681Z,9.70
2023-05-21T01:38:04.034Z,10.20
2023-05-21T01:40:45.108Z,11.30
2023-05-21T01:43:14.022Z,13.00
2023-05-21T01:45:44.277Z,12.40
2023-05-21T01:48:13.103Z,6.00
2023-05-21T01:50:41.870Z,17.10
2023-05-21T01:53:09.088Z,24.30
2023-05-21T01:55:39.753Z,26.40
2023-05-21T01:58:07.402Z,15.90
2023-05-21T02:00:34.722Z,14.60
2023-05-21T02:03:02.075Z,10.90
2023-05-21T02:05:29.403Z,11.60
2023-05-21T02:07:57.201Z,9.90
2023-05-21T02:10:24.381Z,10.10
2023-05-21T02:12:51.565Z,9.70
2023-05-21T02:15:19.367Z,9.00
2023-05-21T02:17:47.073Z,14.30
2023-05-21T02:20:14.667Z,11.40
2023-05-21T02:22:44.573Z,9.80
2023-05-21T02:25:14.534Z,13.50
2023-05-21T02:27:43.160Z,10.20
2023-05-21T02:30:12.344Z,13.30
2023-05-21T02:32:43.237Z,12.30
2023-05-21T02:35:13.320Z,10.00
2023-05-21T02:37:41.375Z,10.50
2023-05-21T02:40:10.227Z,13.00
2023-05-21T02:42:40.212Z,12.80
2023-05-21T02:45:12.928Z,11.30
2023-05-21T02:47:42.190Z,13.60
2023-05-21T02:50:09.729Z,14.90
2023-05-21T02:52:43.265Z,12.40
2023-05-21T02:55:10.736Z,15.40
2023-05-21T02:57:38.041Z,9.00
2023-05-21T03:00:09.399Z,9.20
2023-05-21T03:02:37.514Z,8.70
2023-05-21T03:05:05.334Z,8.90
2023-05-21T03:07:33.969Z,11.10
2023-05-21T03:10:01.629Z,10.90
2023-05-21T03:12:29.068Z,14.70
2023-05-21T03:14:56.582Z,15.90
2023-05-21T03:17:23.965Z,11.00
2023-05-21T03:19:52.148Z,10.60
2023-05-21T03:22:20.166Z,12.40
2023-05-21T03:24:47.471Z,9.20
2023-05-21T03:27:15.524Z,12.40
2023-05-21T03:29:43.920Z,8.80
2023-05-21T03:32:11.379Z,10.10
2023-05-21T03:34:38.555Z,17.90
2023-05-21T03:37:05.793Z,10.20
2023-05-21T03:39:33.148Z,12.30
2023-05-21T03:42:00.423Z,11.00
2023-05-21T03:44:35.812Z,9.60
2023-05-21T03:47:16.861Z,8.20
2023-05-21T03:49:44.022Z,15.30
2023-05-21T03:52:11.278Z,10.90
2023-05-21T03:54:38.484Z,6.20
2023-05-21T03:57:07.588Z,12.80
2023-05-21T03:59:35.099Z,8.50
2023-05-21T04:02:02.373Z,6.60
2023-05-21T04:04:29.817Z,7.40
2023-05-21T04:06:57.121Z,9.20
2023-05-21T04:09:24.461Z,8.80
2023-05-21T04:11:52.388Z,15.50
2023-05-21T04:14:19.658Z,100.20
2023-05-21T04:16:49.323Z,38.00
2023-05-21T04:19:16.687Z,7.70
2023-05-21T04:21:45.159Z,7.40
2023-05-21T04:24:12.793Z,10.20
2023-05-21T04:26:51.474Z,7.10
2023-05-21T04:29:21.264Z,17.90
2023-05-21T04:31:49.867Z,10.40
2023-05-21T04:34:18.054Z,6.20
2023-05-21T04:36:46.136Z,5.40
2023-05-21T04:39:14.677Z,5.50
2023-05-21T04:41:41.869Z,5.70
2023-05-21T04:44:09.873Z,6.80
2023-05-21T04:46:39.667Z,5.50
2023-05-21T04:49:10.406Z,10.60
2023-05-21T04:51:40.078Z,8.30
2023-05-21T04:54:07.814Z,7.40
2023-05-21T04:56:35.147Z,12.10
2023-05-21T04:59:05.198Z,12.20
2023-05-21T05:01:35.487Z,10.20
2023-05-21T05:04:02.968Z,15.80
2023-05-21T05:06:31.293Z,19.30
2023-05-21T05:08:58.694Z,9.00
2023-05-21T05:11:26.885Z,9.10
2023-05-21T05:13:54.437Z,10.90
2023-05-21T05:16:25.766Z,7.50
2023-05-21T05:18:53.647Z,8.40
2023-05-21T05:21:22.968Z,8.00
2023-05-21T05:23:50.299Z,5.90
2023-05-21T05:26:18.501Z,5.10
2023-05-21T05:28:46.408Z,20.30
2023-05-21T05:31:13.804Z,7.00
2023-05-21T05:33:43.100Z,10.90
2023-05-21T05:36:11.686Z,9.60
2023-05-21T05:38:39.011Z,8.10
2023-05-21T05:41:06.340Z,5.00
2023-05-21T05:43:33.532Z,6.30
2023-05-21T05:46:01.119Z,8.60
2023-05-21T05:48:28.916Z,6.00
2023-05-21T05:50:57.311Z,6.80
2023-05-21T05:53:25.513Z,7.20
2023-05-21T05:55:53.306Z,5.00
2023-05-21T05:58:20.720Z,8.80
2023-05-21T06:01:06.253Z,6.90
2023-05-21T06:03:33.778Z,4.70
2023-05-21T06:06:11.243Z,11.10
2023-05-21T06:08:40.679Z,11.70
2023-05-21T06:11:08.066Z,7.50
2023-05-21T06:13:35.682Z,3.40
2023-05-21T06:16:04.032Z,3.90
2023-05-21T06:18:31.192Z,5.50
2023-05-21T06:20:58.344Z,8.00
2023-05-21T06:23:25.707Z,11.10
2023-05-21T06:25:53.328Z,14.80
2023-05-21T06:28:20.737Z,195.10
2023-05-21T06:30:48.575Z,47.80
2023-05-21T06:33:16.340Z,29.10
2023-05-21T06:35:44.385Z,8.40
2023-05-21T06:38:11.630Z,11.80
2023-05-21T06:40:38.831Z,6.00
2023-05-21T06:43:06.226Z,11.90
2023-05-21T06:45:39.704Z,8.20
2023-05-21T06:48:21.261Z,6.30
2023-05-21T06:50:48.660Z,4.90
2023-05-21T06:53:16.597Z,8.80
2023-05-21T06:55:45.529Z,6.40
2023-05-21T06:58:21.582Z,7.70
2023-05-21T07:00:49.124Z,5.90
2023-05-21T07:03:17.423Z,3.90
2023-05-21T07:05:44.797Z,8.90
2023-05-21T07:08:12.353Z,10.50
2023-05-21T07:10:40.009Z,14.90
2023-05-21T07:13:08.007Z,14.30
2023-05-21T07:15:35.432Z,10.20
2023-05-21T07:18:03.692Z,6.70
2023-05-21T07:20:31.030Z,8.10
2023-05-21T07:23:01.059Z,6.70
2023-05-21T07:25:28.428Z,10.40
2023-05-21T07:27:55.646Z,5.20
2023-05-21T07:30:22.792Z,8.10
2023-05-21T07:32:50.194Z,3.00
2023-05-21T07:35:18.018Z,5.50
2023-05-21T07:37:46.459Z,8.30
2023-05-21T07:40:14.621Z,4.80
2023-05-21T07:42:42.418Z,5.00
2023-05-21T07:45:10.048Z,9.30
2023-05-21T07:47:40.923Z,12.30
2023-05-21T07:50:08.368Z,13.70
2023-05-21T07:52:35.897Z,10.10
2023-05-21T07:55:03.176Z,9.10
2023-05-21T07:57:32.073Z,11.60
2023-05-21T08:00:13.215Z,10.20
2023-05-21T08:02:47.220Z,3.80
2023-05-21T08:05:16.467Z,4.80
2023-05-21T08:07:44.105Z,9.40
2023-05-21T08:10:11.454Z,8.60
2023-05-21T08:12:38.630Z,8.40
2023-05-21T08:15:07.408Z,6.10
2023-05-21T08:17:37.906Z,3.30
2023-05-21T08:20:05.953Z,10.00
2023-05-21T08:22:34.567Z,5.30
2023-05-21T08:25:01.780Z,3.10
2023-05-21T08:27:28.968Z,8.30
2023-05-21T08:29:56.240Z,54.80
2023-05-21T08:32:23.417Z,9.40
2023-05-21T08:34:50.770Z,10.70
2023-05-21T08:37:32.375Z,5.10
2023-05-21T08:40:13.716Z,11.50
2023-05-21T08:42:49.997Z,7.50
2023-05-21T08:45:22.923Z,15.00
2023-05-21T08:47:58.212Z,7.40
2023-05-21T08:50:27.974Z,5.30
2023-05-21T08:52:59.030Z,4.30
2023-05-21T08:55:27.129Z,7.50
2023-05-21T08:57:55.242Z,8.20
2023-05-21T09:00:24.340Z,5.70
2023-05-21T09:02:54.715Z,6.60
2023-05-21T09:05:22.981Z,22.60
2023-05-21T09:08:09.246Z,8.40
2023-05-21T09:10:52.892Z,14.10
2023-05-21T09:13:25.128Z,12.50
2023-05-21T09:15:52.687Z,15.60
2023-05-21T09:18:20.506Z,29.70
2023-05-21T09:20:56.646Z,20.40
2023-05-21T09:23:24.607Z,5.40
2023-05-21T09:25:52.722Z,5.60
2023-05-21T09:28:25.520Z,6.50
2023-05-21T09:30:54.457Z,8.50
2023-05-21T09:33:26.460Z,8.30
2023-05-21T09:35:53.781Z,19.20
2023-05-21T09:38:25.274Z,5.60
2023-05-21T09:40:56.737Z,5.50
2023-05-21T09:43:25.367Z,19.00
2023-05-21T09:45:55.386Z,5.50
2023-05-21T09:48:37.963Z,9.30
2023-05-21T09:51:14.906Z,8.70
2023-05-21T09:56:15.721Z,7.50
2023-05-21T09:58:43.983Z,3.80
2023-05-21T10:01:11.481Z,5.20
2023-05-21T10:03:41.286Z,4.10
2023-05-21T10:06:10.246Z,2.40
2023-05-21T10:08:45.633Z,8.20
2023-05-21T10:11:13.653Z,7.80
2023-05-21T10:13:45.575Z,7.70
2023-05-21T10:16:13.536Z,11.50
2023-05-21T10:18:42.540Z,11.40
2023-05-21T10:21:10.101Z,23.80
2023-05-21T10:23:38.808Z,5.50
2023-05-21T10:26:08.178Z,9.50
2023-05-21T10:28:36.669Z,12.60
2023-05-21T10:31:04.624Z,8.10
2023-05-21T10:33:32.172Z,14.60
2023-05-21T10:36:00.542Z,13.50
2023-05-21T10:38:29.360Z,3.40
2023-05-21T10:40:57.862Z,4.10
2023-05-21T10:44:10.170Z,4.70
2023-05-21T10:47:09.737Z,8.90
2023-05-21T10:50:29.447Z,5.30
2023-05-21T10:53:20.244Z,6.30
2023-05-21T10:56:06.801Z,13.60
2023-05-21T10:58:43.135Z,8.90
2023-05-21T11:01:11.580Z,17.30
2023-05-21T11:03:39.422Z,13.20
2023-05-21T11:06:06.660Z,15.60
2023-05-21T11:08:36.338Z,4.30
2023-05-21T11:11:04.552Z,9.70
2023-05-21T11:13:51.593Z,5.30
2023-05-21T11:16:21.377Z,4.20
2023-05-21T11:18:57.403Z,7.20
2023-05-21T11:21:28.624Z,10.30
2023-05-21T11:23:59.379Z,10.30
2023-05-21T11:26:28.621Z,6.30
2023-05-21T11:29:04.664Z,9.30
2023-05-21T11:31:40.161Z,8.10
2023-05-21T11:34:22.347Z,4.40
2023-05-21T11:36:50.228Z,4.80
2023-05-21T11:39:27.810Z,12.30
2023-05-21T11:42:04.369Z,3.50
2023-05-21T11:44:46.009Z,3.60
2023-05-21T11:47:18.738Z,9.40
2023-05-21T11:49:46.564Z,4.80
2023-05-21T11:52:14.841Z,7.10
2023-05-21T11:54:51.379Z,5.10
2023-05-21T11:57:19.703Z,5.60
2023-05-21T11:59:47.863Z,5.40
2023-05-21T12:02:17.192Z,5.40
2023-05-21T12:04:46.939Z,7.30
2023-05-21T12:07:15.884Z,6.60
2023-05-21T12:09:48.264Z,4.30
2023-05-21T12:12:17.953Z,10.20
2023-05-21T12:14:46.701Z,3.20
2023-05-21T12:17:19.115Z,7.70
2023-05-21T12:19:47.164Z,4.60
2023-05-21T12:22:17.571Z,8.20
2023-05-21T12:24:45.426Z,10.90
2023-05-21T12:27:13.631Z,17.70
2023-05-21T12:29:45.169Z,5.80
2023-05-21T12:32:14.157Z,5.20
2023-05-21T12:34:46.642Z,26.10
2023-05-21T12:37:27.813Z,28.20
2023-05-21T12:39:58.280Z,9.50
2023-05-21T12:42:27.546Z,8.20
2023-05-21T12:44:54.703Z,7.30
2023-05-21T12:47:26.761Z,20.40
2023-05-21T12:49:58.046Z,7.50
2023-05-21T12:52:27.347Z,9.90
2023-05-21T12:54:59.012Z,20.60
2023-05-21T12:57:28.432Z,12.70
2023-05-21T12:59:59.850Z,16.00
2023-05-21T13:02:29.582Z,18.20
2023-05-21T13:05:01.481Z,39.10
2023-05-21T13:07:30.038Z,16.60
2023-05-21T13:09:58.009Z,15.80
2023-05-21T13:12:26.844Z,33.70
2023-05-21T13:14:56.450Z,13.50
2023-05-21T13:17:26.431Z,5.30
2023-05-21T13:20:09.562Z,16.10
2023-05-21T13:22:46.944Z,28.30
2023-05-21T13:25:16.959Z,17.00
2023-05-21T13:27:44.692Z,16.70
2023-05-21T13:30:12.430Z,17.40
2023-05-21T13:32:41.000Z,46.40
2023-05-21T13:35:10.097Z,22.50
2023-05-21T13:37:37.534Z,16.00
2023-05-21T13:40:06.505Z,14.80
2023-05-21T13:42:34.629Z,11.80
2023-05-21T13:45:01.833Z,12.80
2023-05-21T13:47:29.235Z,10.20
2023-05-21T13:49:56.327Z,17.10
2023-05-21T13:52:23.493Z,39.40
2023-05-21T13:54:50.718Z,102.40
2023-05-21T13:57:18.323Z,21.60
2023-05-21T13:59:45.529Z,11.20
2023-05-21T14:02:12.765Z,7.40
2023-05-21T14:04:39.985Z,14.00
2023-05-21T14:07:07.240Z,14.60
2023-05-21T14:09:34.946Z,13.70
2023-05-21T14:12:03.486Z,6.20
2023-05-21T14:14:32.383Z,23.30
2023-05-21T14:16:59.583Z,8.30
2023-05-21T14:19:26.973Z,34.50
2023-05-21T14:21:54.467Z,12.20
2023-05-21T14:24:21.582Z,38.40
2023-05-21T14:26:48.764Z,18.20
2023-05-21T14:29:15.997Z,15.00
2023-05-21T14:31:43.205Z,14.30
2023-05-21T14:34:10.453Z,11.00
2023-05-21T14:36:37.695Z,8.30
2023-05-21T14:39:04.886Z,15.30
2023-05-21T14:41:32.178Z,20.60
2023-05-21T14:43:59.375Z,17.80
2023-05-21T14:46:26.957Z,25.90
2023-05-21T14:48:55.537Z,8.90
2023-05-21T14:51:22.731Z,15.90
2023-05-21T14:53:50.119Z,21.10
2023-05-21T14:56:17.534Z,6.50
2023-05-21T14:58:44.717Z,8.40
2023-05-21T15:01:12.055Z,41.70
2023-05-21T15:03:39.275Z,3.40
2023-05-21T15:06:06.503Z,3.10
2023-05-21T15:08:33.720Z,4.90
2023-05-21T15:11:00.874Z,4.80
2023-05-21T15:13:28.118Z,6.10
2023-05-21T15:15:55.381Z,6.60
2023-05-21T15:18:22.521Z,11.00
2023-05-21T15:20:49.793Z,12.80
2023-05-21T15:23:17.965Z,11.00
2023-05-21T15:25:45.956Z,7.10
2023-05-21T15:28:13.305Z,11.00
2023-05-21T15:30:40.599Z,16.10
2023-05-21T15:33:07.769Z,23.50
2023-05-21T15:35:36.688Z,16.40
2023-05-21T15:38:04.268Z,9.90
2023-05-21T15:40:32.344Z,6.60
2023-05-21T15:42:59.605Z,12.20
2023-05-21T15:45:26.753Z,46.50
2023-05-21T15:47:54.029Z,15.30
2023-05-21T15:50:21.199Z,12.90
2023-05-21T15:52:49.029Z,9.30
2023-05-21T15:55:17.517Z,32.70
2023-05-21T15:57:44.644Z,25.10
2023-05-21T16:00:12.645Z,10.20
2023-05-21T16:02:41.966Z,14.70
2023-05-21T16:05:09.818Z,4.30
2023-05-21T16:07:38.384Z,40.80
2023-05-21T16:10:08.424Z,7.20
2023-05-21T16:12:35.545Z,22.40
2023-05-21T16:15:02.757Z,13.20
2023-05-21T16:17:30.000Z,47.20
2023-05-21T16:19:57.421Z,34.60
2023-05-21T16:22:25.175Z,68.90
2023-05-21T16:24:52.297Z,27.20
2023-05-21T16:27:19.783Z,31.50
2023-05-21T16:29:47.037Z,14.30
2023-05-21T16:32:14.450Z,14.50
2023-05-21T16:34:41.820Z,10.00
2023-05-21T16:37:09.932Z,10.00
2023-05-21T16:39:37.579Z,8.00
2023-05-21T16:42:05.016Z,7.80
2023-05-21T16:44:32.428Z,10.00
2023-05-21T16:47:00.249Z,6.60
2023-05-21T16:49:28.047Z,17.50
2023-05-21T16:51:55.203Z,8.00
2023-05-21T16:54:22.390Z,9.70
2023-05-21T16:56:49.570Z,11.40
2023-05-21T16:59:16.733Z,14.80
2023-05-21T17:01:43.972Z,12.90
2023-05-21T17:04:11.174Z,16.60
2023-05-21T17:06:38.346Z,20.00
2023-05-21T17:09:05.538Z,7.40
2023-05-21T17:11:32.735Z,8.90
2023-05-21T17:13:59.928Z,11.80
2023-05-21T17:16:27.207Z,7.90
2023-05-21T17:18:54.273Z,11.20
2023-05-21T17:21:21.607Z,12.40
2023-05-21T17:23:48.826Z,16.90
2023-05-21T17:26:16.296Z,15.70
2023-05-21T17:28:43.927Z,19.10
2023-05-21T17:31:11.322Z,20.90
2023-05-21T17:33:39.566Z,11.90
2023-05-21T17:36:06.890Z,14.40
2023-05-21T17:38:34.095Z,19.10
2023-05-21T17:41:01.378Z,9.40
2023-05-21T17:43:28.654Z,10.80
2023-05-21T17:45:55.900Z,22.70
2023-05-21T17:48:23.273Z,19.20
2023-05-21T17:50:51.177Z,22.50
2023-05-21T17:53:18.378Z,18.10
2023-05-21T17:55:45.535Z,18.20
2023-05-21T17:58:12.711Z,18.30
2023-05-21T18:00:39.928Z,28.50
2023-05-21T18:03:07.108Z,72.90
2023-05-21T18:05:34.608Z,67.10
2023-05-21T18:08:02.913Z,77.80
2023-05-21T18:10:30.218Z,77.30
2023-05-21T18:12:57.365Z,58.00
2023-05-21T18:15:24.547Z,58.40
2023-05-21T18:17:51.735Z,58.30
2023-05-21T18:20:18.966Z,55.90
2023-05-21T18:22:46.192Z,34.50
2023-05-21T18:25:13.435Z,38.00
2023-05-21T18:27:40.785Z,32.40
2023-05-21T18:30:08.672Z,32.50
2023-05-21T18:32:38.940Z,26.50
2023-05-21T18:35:11.181Z,22.50
2023-05-21T18:37:41.676Z,26.70
2023-05-21T18:40:09.478Z,45.60
2023-05-21T18:42:36.598Z,38.00
2023-05-21T18:45:08.526Z,35.60
2023-05-21T18:47:35.989Z,29.70
2023-05-21T18:50:03.403Z,40.20
2023-05-21T18:52:30.526Z,26.40
2023-05-21T18:54:57.632Z,29.70
2023-05-21T18:57:24.827Z,26.70
2023-05-21T18:59:51.969Z,24.90
2023-05-21T19:02:19.258Z,37.70
2023-05-21T19:04:46.636Z,21.20
2023-05-21T19:07:15.953Z,28.00
2023-05-21T19:09:43.113Z,19.20
2023-05-21T19:12:10.309Z,23.60
2023-05-21T19:14:37.754Z,19.20
2023-05-21T19:17:05.342Z,12.80
2023-05-21T19:19:32.519Z,12.50
2023-05-21T19:21:59.791Z,7.90
2023-05-21T19:24:26.897Z,16.40
2023-05-21T19:26:54.157Z,11.00
2023-05-21T19:29:21.663Z,12.20
2023-05-21T19:31:48.948Z,15.60
2023-05-21T19:34:16.458Z,20.20
2023-05-21T19:36:52.896Z,18.70
2023-05-21T19:39:21.247Z,20.90
2023-05-21T19:41:48.538Z,21.70
2023-05-21T19:44:15.739Z,15.40
2023-05-21T19:46:42.939Z,23.50
2023-05-21T19:49:14.693Z,35.80
2023-05-21T19:51:41.910Z,51.20
2023-05-21T19:54:09.076Z,61.80
2023-05-21T19:56:36.408Z,60.00
2023-05-21T19:59:04.121Z,56.10
2023-05-21T20:01:34.696Z,62.00
2023-05-21T20:04:02.310Z,74.40
2023-05-21T20:06:29.497Z,54.60
2023-05-21T20:08:56.717Z,36.80
2023-05-21T20:11:24.161Z,31.40
2023-05-21T20:13:51.460Z,28.00
2023-05-21T20:16:20.068Z,34.30
2023-05-21T20:18:47.611Z,50.60
2023-05-21T20:21:18.446Z,38.20
2023-05-21T20:23:46.143Z,41.20
2023-05-21T20:26:14.706Z,26.50
2023-05-21T20:28:42.006Z,33.60
2023-05-21T20:31:09.457Z,54.10
2023-05-21T20:33:42.464Z,50.10
2023-05-21T20:36:09.707Z,40.90
2023-05-21T20:38:38.291Z,36.20
2023-05-21T20:41:05.580Z,36.50
2023-05-21T20:43:33.074Z,30.50
2023-05-21T20:46:01.818Z,33.00
2023-05-21T20:48:30.052Z,24.10
2023-05-21T20:51:00.499Z,14.00
2023-05-21T20:53:27.873Z,25.40
2023-05-21T20:55:55.121Z,23.20
2023-05-21T20:58:24.239Z,23.90
2023-05-21T21:00:52.648Z,19.40
2023-05-21T21:03:21.798Z,12.90
2023-05-21T21:05:51.413Z,15.90
2023-05-21T21:08:18.713Z,13.30
2023-05-21T21:10:47.173Z,12.50
2023-05-21T21:13:15.060Z,9.90
2023-05-21T21:15:44.151Z,12.40
2023-05-21T21:18:12.709Z,13.10
2023-05-21T21:20:41.481Z,12.90
2023-05-21T21:23:09.395Z,17.20
2023-05-21T21:25:36.683Z,30.40
2023-05-21T21:28:04.122Z,50.20
2023-05-21T21:30:31.296Z,35.20
2023-05-21T21:32:58.415Z,44.90
2023-05-21T21:35:25.646Z,35.80
2023-05-21T21:37:52.874Z,29.40
2023-05-21T21:40:20.000Z,33.70
2023-05-21T21:42:47.368Z,27.30
2023-05-21T21:45:14.595Z,26.70
2023-05-21T21:47:41.791Z,31.30
2023-05-21T21:50:09.325Z,48.40
2023-05-21T21:52:40.209Z,54.70
2023-05-21T21:55:11.308Z,37.30
2023-05-21T21:57:39.415Z,27.60
2023-05-21T22:00:15.896Z,19.20
2023-05-21T22:02:44.049Z,12.80
2023-05-21T22:05:14.886Z,16.10
2023-05-21T22:07:46.406Z,6.90
2023-05-21T22:10:15.306Z,15.90
2023-05-21T22:12:43.360Z,21.70
2023-05-21T22:15:27.620Z,19.40
2023-05-21T22:17:55.424Z,15.90
2023-05-21T22:20:23.429Z,19.10
2023-05-21T22:22:50.776Z,14.80
2023-05-21T22:25:18.607Z,9.30
2023-05-21T22:27:45.826Z,14.20
2023-05-21T22:30:13.232Z,19.50
2023-05-21T22:32:40.496Z,13.10
2023-05-21T22:35:08.508Z,11.30
2023-05-21T22:37:37.443Z,12.10
2023-05-21T22:40:08.587Z,11.50
2023-05-21T22:42:36.430Z,8.50
2023-05-21T22:45:04.036Z,13.30
2023-05-21T22:47:32.359Z,10.50
2023-05-21T22:50:00.847Z,13.50
2023-05-21T22:52:28.954Z,15.00
2023-05-21T22:54:57.999Z,13.10
2023-05-21T22:57:25.155Z,9.90
2023-05-21T22:59:52.428Z,12.50
2023-05-21T23:02:19.607Z,12.90
2023-05-21T23:04:48.531Z,15.30
2023-05-21T23:07:16.163Z,11.50
2023-05-21T23:09:43.427Z,10.80
2023-05-21T23:12:11.232Z,9.50
2023-05-21T23:14:38.430Z,13.20
2023-05-21T23:17:05.723Z,12.30
2023-05-21T23:19:33.048Z,18.20
2023-05-21T23:22:00.649Z,8.00
2023-05-21T23:24:29.572Z,6.80
2023-05-21T23:27:02.015Z,6.20
2023-05-21T23:29:30.476Z,12.10
2023-05-21T23:31:58.008Z,14.20
2023-05-21T23:34:25.739Z,14.70
2023-05-21T23:36:53.134Z,22.20
2023-05-21T23:39:21.071Z,26.90
2023-05-21T23:41:48.839Z,51.30
2023-05-21T23:44:16.280Z,56.50
2023-05-21T23:46:43.592Z,102.10
2023-05-21T23:49:10.747Z,68.10
2023-05-21T23:51:38.493Z,63.90
2023-05-21T23:54:05.791Z,58.80
2023-05-21T23:56:32.944Z,70.20
2023-05-21T23:59:00.168Z,95.80
